Time;durP1;ratioP1;P1;durP2;ratioP2;P2;SDS_P1;SDS_P2;PMS_P1;PMS_P2;Temp;Humidity;BMP_temperature;BMP_pressure;BME280_temperature;BME280_humidity;BME280_pressure;Samples;Min_cycle;Max_cycle;Signal;HPM_P1;HPM_P2
2022/07/14 00:01:22;;;;;;;18.58;6.43;;;;;;;9.34;100.00;102089.63;5013378;28;20570;-77
2022/07/14 00:03:47;;;;;;;23.40;6.22;;;;;;;9.32;100.00;102091.63;5030418;28;20036;-79
2022/07/14 00:06:13;;;;;;;22.63;6.00;;;;;;;9.19;100.00;102071.22;5008271;28;20391;-78
2022/07/14 00:08:39;;;;;;;18.92;5.68;;;;;;;9.21;100.00;102065.72;5036154;28;20475;-78
2022/07/14 00:11:05;;;;;;;27.10;6.35;;;;;;;9.32;100.00;102099.69;5044574;28;20390;-78
2022/07/14 00:13:31;;;;;;;25.17;6.32;;;;;;;9.25;100.00;102094.81;5031127;28;20086;-78
2022/07/14 00:15:57;;;;;;;21.52;6.40;;;;;;;9.09;100.00;102094.47;5041894;28;20040;-77
2022/07/14 00:18:23;;;;;;;22.80;5.18;;;;;;;8.99;100.00;102094.41;5044741;28;20036;-79
2022/07/14 00:20:49;;;;;;;14.88;5.18;;;;;;;8.87;100.00;102097.31;5034949;28;20054;-79
2022/07/14 00:23:15;;;;;;;13.43;5.88;;;;;;;8.74;100.00;102095.69;5047861;28;20317;-79
2022/07/14 00:25:42;;;;;;;18.02;5.22;;;;;;;8.65;100.00;102096.44;5045767;28;20044;-78
2022/07/14 00:28:07;;;;;;;16.63;4.72;;;;;;;8.55;100.00;102092.88;5033566;28;20078;-78
2022/07/14 00:30:33;;;;;;;18.98;5.45;;;;;;;8.52;100.00;102104.72;5038537;28;20059;-77
2022/07/14 00:32:58;;;;;;;18.70;5.50;;;;;;;8.42;100.00;102094.91;5031490;28;20048;-78
2022/07/14 00:35:24;;;;;;;14.65;5.80;;;;;;;8.33;100.00;102097.31;5013448;28;20043;-78
2022/07/14 00:37:50;;;;;;;25.00;5.22;;;;;;;8.32;100.00;102100.13;5031532;28;20497;-79
2022/07/14 00:40:17;;;;;;;20.48;5.00;;;;;;;8.21;100.00;102103.72;5047621;28;20036;-78
2022/07/14 00:42:49;;;;;;;16.55;5.68;;;;;;;8.19;100.00;102105.66;5028925;28;20119;-77
2022/07/14 00:45:17;;;;;;;15.55;4.80;;;;;;;8.13;100.00;102101.66;5037404;28;20028;-78
2022/07/14 00:47:44;;;;;;;16.80;4.72;;;;;;;8.10;100.00;102095.72;5029694;28;20055;-76
2022/07/14 00:50:11;;;;;;;11.00;4.55;;;;;;;8.22;100.00;102102.72;5042437;28;20107;-76
2022/07/14 00:52:37;;;;;;;16.95;5.35;;;;;;;8.25;100.00;102104.28;5049516;28;20435;-78
2022/07/14 00:55:03;;;;;;;14.85;4.45;;;;;;;8.20;100.00;102107.34;5037494;28;20040;-77
2022/07/14 00:57:29;;;;;;;9.98;4.50;;;;;;;8.08;100.00;102086.94;5036335;28;20040;-77
2022/07/14 00:59:56;;;;;;;11.73;4.80;;;;;;;8.13;100.00;102106.19;5051790;28;20434;-77
2022/07/14 01:02:22;;;;;;;13.20;4.60;;;;;;;8.11;100.00;102108.13;5050367;28;20136;-78
2022/07/14 01:04:48;;;;;;;9.35;4.65;;;;;;;7.96;100.00;102090.63;5046318;28;20036;-78
2022/07/14 01:07:16;;;;;;;14.25;4.28;;;;;;;8.07;100.00;102107.53;5049063;28;20024;-77
2022/07/14 01:09:42;;;;;;;10.00;4.85;;;;;;;8.07;100.00;102107.53;5033879;28;20544;-77
2022/07/14 01:12:09;;;;;;;13.85;4.57;;;;;;;7.89;100.00;102091.16;5041239;28;20032;-77
2022/07/14 01:14:36;;;;;;;18.55;4.63;;;;;;;7.97;100.00;102111.09;5031302;28;20107;-77
2022/07/14 01:17:02;;;;;;;16.20;4.38;;;;;;;7.95;100.00;102110.38;5047354;28;20166;-77
2022/07/14 01:19:28;;;;;;;13.63;4.50;;;;;;;7.85;100.00;102094.19;5031132;28;20037;-78
2022/07/14 01:21:55;;;;;;;11.70;3.47;;;;;;;7.96;100.00;102110.22;5047850;28;20505;-77
2022/07/14 01:24:21;;;;;;;10.75;3.58;;;;;;;7.89;100.00;102104.53;5013622;28;20043;-78
2022/07/14 01:26:47;;;;;;;11.38;3.58;;;;;;;7.85;100.00;102095.03;5050094;28;20027;-77
2022/07/14 01:29:13;;;;;;;10.48;3.85;;;;;;;7.88;100.00;102110.84;5048107;28;20036;-77
2022/07/14 01:31:39;;;;;;;16.70;4.07;;;;;;;7.89;100.00;102111.72;5049906;28;20718;-78
2022/07/14 01:34:05;;;;;;;14.15;4.50;;;;;;;7.93;100.00;102118.50;5028461;28;20113;-77
2022/07/14 01:36:30;;;;;;;14.25;4.68;;;;;;;7.98;100.00;102110.09;5043312;28;20479;-77
2022/07/14 01:38:57;;;;;;;13.05;4.72;;;;;;;8.19;100.00;102111.00;5054283;28;20048;-77
2022/07/14 01:41:23;;;;;;;15.07;4.65;;;;;;;8.44;100.00;102109.00;5031269;28;20033;-79
2022/07/14 01:43:49;;;;;;;13.30;4.53;;;;;;;8.76;100.00;102111.66;5016222;28;20035;-77
2022/07/14 01:46:14;;;;;;;19.70;5.22;;;;;;;8.95;100.00;102106.41;5011160;28;20045;-78
2022/07/14 01:48:41;;;;;;;14.15;4.40;;;;;;;8.97;100.00;102114.31;5026840;28;20505;-77
2022/07/14 01:51:06;;;;;;;13.82;4.43;;;;;;;8.90;100.00;102111.31;5023581;28;20116;-77
2022/07/14 01:53:32;;;;;;;11.10;3.75;;;;;;;8.72;100.00;102115.56;5030327;28;20112;-77
2022/07/14 01:55:58;;;;;;;7.25;3.97;;;;;;;8.76;100.00;102115.19;5030856;28;20063;-77
2022/07/14 01:58:24;;;;;;;17.00;4.03;;;;;;;8.87;100.00;102118.78;5021255;28;20036;-77
2022/07/14 02:03:34;;;;;;;11.13;3.90;;;;;;;8.77;100.00;102113.34;5033797;28;20033;-78
2022/07/14 02:06:00;;;;;;;11.65;4.07;;;;;;;8.74;100.00;102101.06;5030057;28;20363;-77
2022/07/14 02:08:27;;;;;;;16.10;4.03;;;;;;;8.71;100.00;102106.69;5041707;28;20029;-77
2022/07/14 02:13:37;;;;;;;9.50;3.40;;;;;;;8.44;100.00;102109.00;5049348;28;20032;-78
2022/07/14 02:16:02;;;;;;;10.65;3.33;;;;;;;8.29;100.00;102111.97;5034112;28;20039;-79
2022/07/14 02:18:28;;;;;;;7.15;2.97;;;;;;;8.24;100.00;102116.00;5063171;28;20043;-77
2022/07/14 02:20:54;;;;;;;11.25;3.35;;;;;;;8.04;100.00;102098.88;5016969;28;20033;-78
2022/07/14 02:23:20;;;;;;;9.65;4.13;;;;;;;8.06;100.00;102107.66;5018779;28;20036;-77
2022/07/14 02:25:47;;;;;;;8.35;3.28;;;;;;;8.02;100.00;102090.13;5012162;28;20127;-78
2022/07/14 02:28:13;;;;;;;12.55;3.28;;;;;;;8.11;100.00;102105.44;5064713;28;20039;-77
2022/07/14 02:30:38;;;;;;;12.43;3.40;;;;;;;8.12;100.00;102109.81;5019815;28;20059;-77
2022/07/14 02:33:04;;;;;;;12.00;3.60;;;;;;;8.12;100.00;102104.44;5014921;28;20418;-78
2022/07/14 02:35:30;;;;;;;8.82;3.50;;;;;;;8.08;100.00;102108.38;5036552;28;20552;-78
2022/07/14 02:37:56;;;;;;;9.38;3.08;;;;;;;7.90;100.00;102086.63;5062099;28;20033;-77
2022/07/14 02:40:21;;;;;;;11.65;3.55;;;;;;;7.85;100.00;102070.94;5042780;28;20051;-76
2022/07/14 02:42:47;;;;;;;9.80;3.03;;;;;;;8.02;100.00;102100.81;5029714;28;20029;-79
2022/07/14 02:45:13;;;;;;;11.32;3.45;;;;;;;8.11;100.00;102094.72;5062316;28;20124;-77
2022/07/14 02:47:39;;;;;;;8.65;3.15;;;;;;;8.44;100.00;102098.28;5026775;28;20028;-76
2022/07/14 02:50:05;;;;;;;11.52;3.55;;;;;;;8.72;100.00;102086.06;5028664;28;20067;-77
2022/07/14 02:52:31;;;;;;;8.10;3.55;;;;;;;9.03;100.00;102105.75;5030610;28;20040;-78
2022/07/14 02:54:56;;;;;;;10.60;3.78;;;;;;;9.17;100.00;102101.84;5043243;28;20089;-77
2022/07/14 02:57:22;;;;;;;11.75;4.18;;;;;;;9.41;100.00;102099.69;5034407;28;20044;-77
2022/07/14 02:59:48;;;;;;;11.52;4.18;;;;;;;9.52;100.00;102106.81;5044482;28;20040;-77
2022/07/14 03:02:14;;;;;;;10.48;3.95;;;;;;;9.57;100.00;102099.19;5030792;28;20049;-77
2022/07/14 03:04:39;;;;;;;9.13;3.97;;;;;;;9.61;100.00;102092.56;5027069;28;20068;-77
2022/07/14 03:07:05;;;;;;;18.85;4.47;;;;;;;9.78;100.00;102099.09;5023320;28;20085;-77
2022/07/14 03:09:30;;;;;;;14.07;4.25;;;;;;;9.89;100.00;102103.50;5048325;28;20029;-78
2022/07/14 03:11:56;;;;;;;12.85;4.20;;;;;;;9.94;100.00;102097.72;5015299;28;20044;-77
2022/07/14 03:14:22;;;;;;;13.07;3.97;;;;;;;10.00;100.00;102100.72;5027269;28;20036;-78
2022/07/14 03:16:47;;;;;;;14.80;4.53;;;;;;;10.02;100.00;102096.03;5036763;28;20089;-78
2022/07/14 03:19:13;;;;;;;17.88;4.10;;;;;;;9.98;100.00;102075.81;5039996;28;20138;-77
2022/07/14 03:21:41;;;;;;;11.60;3.92;;;;;;;10.15;100.00;102097.63;5030908;28;20548;-77
2022/07/14 03:24:07;;;;;;;13.95;3.95;;;;;;;10.17;100.00;102091.13;5063285;28;20479;-79
2022/07/14 03:26:35;;;;;;;10.40;3.78;;;;;;;10.27;100.00;102099.19;5032089;28;20043;-78
2022/07/14 03:29:01;;;;;;;10.35;3.88;;;;;;;10.26;100.00;102094.78;5017576;28;20105;-78
2022/07/14 03:31:27;;;;;;;13.07;4.72;;;;;;;10.33;100.00;102101.34;5048337;28;20398;-78
2022/07/14 03:33:53;;;;;;;10.70;3.58;;;;;;;10.28;100.00;102090.16;5065193;28;20025;-79
2022/07/14 03:36:20;;;;;;;16.48;4.10;;;;;;;10.33;100.00;102102.19;5046839;28;20051;-78
2022/07/14 03:38:46;;;;;;;12.05;3.70;;;;;;;10.24;100.00;102089.56;5033053;28;20064;-78
2022/07/14 03:41:12;;;;;;;14.85;3.78;;;;;;;10.27;100.00;102097.38;5011979;28;20033;-78
2022/07/14 03:43:38;;;;;;;12.70;4.32;;;;;;;10.24;100.00;102096.75;5030943;28;20056;-78
2022/07/14 03:46:04;;;;;;;16.17;4.05;;;;;;;10.23;100.00;102092.38;5065870;28;20082;-78
2022/07/14 03:48:31;;;;;;;20.13;4.55;;;;;;;10.25;100.00;102098.47;5050792;28;20036;-76
2022/07/14 03:50:56;;;;;;;12.90;3.55;;;;;;;10.23;100.00;102100.44;5029259;28;20029;-78
2022/07/14 03:53:23;;;;;;;15.63;4.70;;;;;;;10.22;100.00;102093.38;5049147;28;20119;-78
2022/07/14 03:55:49;;;;;;;10.05;3.70;;;;;;;10.18;100.00;102089.28;5041183;28;20039;-78
2022/07/14 03:58:14;;;;;;;14.70;4.35;;;;;;;10.22;100.00;102096.91;5039324;28;20048;-78
2022/07/14 04:00:40;;;;;;;12.15;4.35;;;;;;;10.22;100.00;102093.38;5066458;28;20115;-77
2022/07/14 04:03:06;;;;;;;11.10;2.92;;;;;;;9.90;100.00;102054.19;5069067;28;20025;-78
2022/07/14 04:05:34;;;;;;;16.00;3.67;;;;;;;10.16;100.00;102088.56;5028343;28;20132;-77
2022/07/14 04:07:59;;;;;;;8.60;4.00;;;;;;;10.10;100.00;102089.97;5022116;28;20036;-78
2022/07/14 04:10:25;;;;;;;10.82;3.72;;;;;;;10.22;100.00;102106.84;5045162;28;20074;-77
2022/07/14 04:12:51;;;;;;;12.45;4.75;;;;;;;10.27;100.00;102102.75;5031462;28;20375;-77
2022/07/14 04:15:16;;;;;;;13.43;3.72;;;;;;;10.27;100.00;102096.50;5028268;28;20020;-77
2022/07/14 04:17:42;;;;;;;8.75;3.45;;;;;;;10.27;100.00;102086.63;5033733;28;20485;-77
2022/07/14 04:20:09;;;;;;;10.15;3.97;;;;;;;10.37;100.00;102096.53;5043786;28;20040;-76
2022/07/14 04:22:34;;;;;;;9.93;3.50;;;;;;;10.33;100.00;102096.81;5042510;28;20033;-77
2022/07/14 04:25:00;;;;;;;11.18;3.70;;;;;;;10.37;100.00;102099.22;5042663;28;20047;-77
2022/07/14 04:27:26;;;;;;;7.82;3.40;;;;;;;10.38;100.00;102107.16;5051288;28;20043;-77
2022/07/14 04:29:52;;;;;;;9.57;3.60;;;;;;;10.19;100.00;102088.28;5037908;28;20086;-77
2022/07/14 04:32:17;;;;;;;9.13;3.75;;;;;;;10.12;100.00;102112.19;5034431;28;20051;-77
2022/07/14 04:34:44;;;;;;;10.32;3.55;;;;;;;9.90;100.00;102100.69;5024927;28;21972;-77
2022/07/14 04:37:11;;;;;;;12.18;3.90;;;;;;;9.84;100.00;102111.13;5032975;28;20032;-77
2022/07/14 04:39:37;;;;;;;9.35;3.45;;;;;;;9.66;100.00;102102.91;5031333;28;20127;-77
2022/07/14 04:42:03;;;;;;;7.95;3.55;;;;;;;9.55;100.00;102119.09;5033073;28;20089;-77
2022/07/14 04:44:29;;;;;;;6.60;3.22;;;;;;;9.41;100.00;102115.81;5021196;28;20076;-78
2022/07/14 04:46:55;;;;;;;6.82;2.90;;;;;;;9.26;100.00;102109.09;5052468;28;20067;-77
2022/07/14 04:52:05;;;;;;;9.52;3.05;;;;;;;9.19;100.00;102122.22;5035896;28;20033;-78
2022/07/14 04:54:32;;;;;;;10.00;2.70;;;;;;;9.15;100.00;102126.13;5017888;28;20212;-78
2022/07/14 04:56:59;;;;;;;9.02;3.72;;;;;;;9.21;100.00;102125.63;5044087;28;20039;-77
2022/07/14 04:59:24;;;;;;;8.13;3.10;;;;;;;9.26;100.00;102117.16;5047782;28;20044;-77
2022/07/14 05:01:50;;;;;;;6.40;3.20;;;;;;;9.39;100.00;102122.28;5023068;28;20086;-77
2022/07/14 05:04:16;;;;;;;8.48;3.40;;;;;;;9.46;100.00;102107.34;5047508;28;20421;-78
2022/07/14 05:06:42;;;;;;;12.70;3.55;;;;;;;9.69;100.00;102124.97;5034047;28;21680;-77
2022/07/14 05:09:07;;;;;;;6.25;2.95;;;;;;;9.75;100.00;102103.91;5018602;28;20040;-77
2022/07/14 05:11:33;;;;;;;6.70;3.33;;;;;;;10.27;100.00;102129.63;5030281;28;20037;-77
2022/07/14 05:13:58;;;;;;;10.02;3.67;;;;;;;10.57;100.00;102123.25;5007928;28;20037;-78
2022/07/14 05:16:24;;;;;;;15.82;4.18;;;;;;;10.82;100.00;102129.03;5009734;28;20028;-78
2022/07/14 05:18:50;;;;;;;15.30;4.30;;;;;;;11.42;100.00;102120.66;5049243;28;20498;-79
2022/07/14 05:21:16;;;;;;;12.60;3.92;;;;;;;12.19;100.00;102124.78;5058070;28;20077;-77
2022/07/14 05:23:41;;;;;;;10.00;3.47;;;;;;;12.57;100.00;102125.50;5031301;28;20035;-76
2022/07/14 05:26:11;;;;;;;9.15;3.45;;;;;;;12.31;100.00;102106.56;5029279;28;20058;-78
2022/07/14 05:28:37;;;;;;;10.55;3.70;;;;;;;12.28;100.00;102115.81;5014114;28;20040;-78
2022/07/14 05:31:03;;;;;;;6.80;2.42;;;;;;;12.29;100.00;102114.78;5022092;28;20055;-76
2022/07/14 05:33:28;;;;;;;8.52;2.95;;;;;;;12.26;100.00;102123.19;5034767;28;20033;-77
2022/07/14 05:35:55;;;;;;;10.57;3.55;;;;;;;12.16;100.00;102116.19;5015774;28;20051;-76
2022/07/14 05:38:21;;;;;;;8.68;3.05;;;;;;;12.13;100.00;102116.50;5047294;28;20114;-77
2022/07/14 05:40:47;;;;;;;8.90;3.17;;;;;;;12.19;100.00;102119.41;5052635;28;20032;-77
2022/07/14 05:43:14;;;;;;;9.23;3.20;;;;;;;12.18;100.00;102098.00;5027352;28;20043;-77
2022/07/14 05:45:40;;;;;;;6.60;3.17;;;;;;;12.30;100.00;102116.50;5048151;28;20512;-76
2022/07/14 05:48:05;;;;;;;7.38;3.17;;;;;;;12.33;100.00;102120.72;5026101;28;20029;-77
2022/07/14 05:50:31;;;;;;;5.43;3.40;;;;;;;12.60;100.00;102127.88;5042355;28;20056;-77
2022/07/14 05:52:57;;;;;;;9.70;3.40;;;;;;;12.84;100.00;102131.78;5030845;28;20052;-77
2022/07/14 05:55:23;;;;;;;8.75;3.10;;;;;;;12.96;100.00;102122.41;5037871;28;20135;-78
2022/07/14 05:57:49;;;;;;;5.35;2.72;;;;;;;12.95;100.00;102124.28;5037429;28;20040;-77
2022/07/14 06:00:15;;;;;;;10.95;3.38;;;;;;;12.96;100.00;102128.66;5005070;28;20036;-78
2022/07/14 06:02:42;;;;;;;8.80;3.35;;;;;;;13.02;100.00;102129.03;5058530;28;20028;-76
2022/07/14 06:05:08;;;;;;;8.55;3.30;;;;;;;13.09;100.00;102133.66;5038200;28;20052;-77
2022/07/14 06:07:34;;;;;;;7.10;3.25;;;;;;;13.07;100.00;102132.09;5023844;28;20181;-78
2022/07/14 06:10:01;;;;;;;7.95;3.03;;;;;;;13.19;100.00;102138.94;5024885;28;20029;-78
2022/07/14 06:12:27;;;;;;;10.40;3.00;;;;;;;13.44;100.00;102145.34;5020947;28;20043;-78
2022/07/14 06:14:53;;;;;;;7.38;3.35;;;;;;;13.68;100.00;102143.78;5043327;28;20032;-76
2022/07/14 06:17:19;;;;;;;14.50;3.55;;;;;;;13.76;100.00;102146.50;5032126;28;20044;-77
2022/07/14 06:19:44;;;;;;;9.43;2.72;;;;;;;13.89;100.00;102143.34;5041838;28;20039;-77
2022/07/14 06:22:25;;;;;;;10.63;2.88;;;;;;;14.03;100.00;102142.75;5025637;28;20040;-76
2022/07/14 06:25:32;;;;;;;9.95;3.53;;;;;;;13.96;100.00;102137.13;5023178;28;20427;-77
2022/07/14 06:27:58;;;;;;;7.90;2.40;;;;;;;14.21;100.00;102150.72;5020187;28;20368;-77
2022/07/14 06:30:37;;;;;;;9.05;3.00;;;;;;;14.19;100.00;102104.91;5042462;28;20131;-79
2022/07/14 06:33:11;;;;;;;8.18;2.53;;;;;;;14.99;100.00;102158.41;5029208;28;20692;-79
2022/07/14 06:35:41;;;;;;;7.43;2.95;;;;;;;15.21;100.00;102121.63;5054778;28;20032;-77
2022/07/14 06:38:07;;;;;;;13.70;3.80;;;;;;;15.56;98.45;102125.78;5016101;28;20063;-77
2022/07/14 06:40:32;;;;;;;6.07;2.97;;;;;;;15.77;97.86;102149.63;5021956;28;20037;-76
2022/07/14 06:42:58;;;;;;;5.88;2.55;;;;;;;15.75;97.72;102110.97;5017857;28;20097;-78
2022/07/14 06:45:24;;;;;;;13.80;2.90;;;;;;;16.08;98.44;102161.50;5023335;28;20032;-78
2022/07/14 06:47:49;;;;;;;8.75;2.50;;;;;;;16.14;96.35;102166.19;5035781;28;20035;-78
2022/07/14 06:50:15;;;;;;;5.45;2.30;;;;;;;16.16;96.92;102170.44;5036054;28;20375;-77
2022/07/14 06:52:41;;;;;;;8.52;2.75;;;;;;;17.10;92.19;102162.13;5041609;28;20089;-78
2022/07/14 06:55:07;;;;;;;11.88;3.30;;;;;;;18.41;83.83;102168.69;5057288;28;20449;-77
2022/07/14 06:57:36;;;;;;;8.15;2.17;;;;;;;18.96;78.03;102149.94;5039451;28;20036;-77
2022/07/14 07:00:07;;;;;;;7.72;2.42;;;;;;;19.64;72.71;102163.84;5034862;28;20149;-76
2022/07/14 07:02:35;;;;;;;4.85;2.00;;;;;;;20.36;68.40;102170.63;5038449;28;20386;-76
2022/07/14 07:07:46;;;;;;;5.50;1.70;;;;;;;21.67;57.80;102172.75;5067070;28;20037;-76
2022/07/14 07:10:12;;;;;;;4.70;2.00;;;;;;;21.82;57.71;102161.53;5016958;28;20277;-76
2022/07/14 07:12:38;;;;;;;7.18;2.03;;;;;;;22.22;56.95;102186.88;5060495;28;20073;-77
2022/07/14 07:15:04;;;;;;;6.13;1.70;;;;;;;22.31;55.14;102169.13;5032519;28;20383;-77
2022/07/14 07:17:30;;;;;;;6.20;1.83;;;;;;;21.40;56.75;102166.50;5011453;28;20052;-78
2022/07/14 07:19:56;;;;;;;9.35;2.08;;;;;;;21.47;58.79;102172.81;5050210;28;20057;-76
2022/07/14 07:22:21;;;;;;;3.70;1.30;;;;;;;22.01;53.71;102184.41;5012366;28;20028;-78
2022/07/14 07:24:47;;;;;;;7.75;2.00;;;;;;;22.39;52.53;102188.06;5018042;28;20071;-77
2022/07/14 07:27:13;;;;;;;11.23;2.50;;;;;;;22.61;52.94;102187.72;5036285;28;20083;-78
2022/07/14 07:29:39;;;;;;;7.00;1.95;;;;;;;23.07;50.38;102180.19;5011655;28;20045;-77
2022/07/14 07:32:05;;;;;;;6.68;1.90;;;;;;;23.51;48.77;102178.31;5053071;28;20024;-75
2022/07/14 07:34:31;;;;;;;7.10;1.65;;;;;;;23.21;49.13;102168.88;5024418;28;20123;-75
2022/07/14 07:36:56;;;;;;;4.13;1.90;;;;;;;22.86;50.00;102176.75;5037438;28;20035;-77
2022/07/14 07:39:22;;;;;;;5.90;2.22;;;;;;;22.63;50.76;102160.91;5035967;28;20036;-77
2022/07/14 07:41:48;;;;;;;5.63;2.15;;;;;;;22.60;51.42;102155.88;5032162;28;20040;-77
2022/07/14 07:44:13;;;;;;;7.82;1.52;;;;;;;21.65;52.27;102169.41;5026121;28;20033;-76
2022/07/14 07:46:39;;;;;;;4.68;1.75;;;;;;;20.54;55.68;102164.63;5016671;28;20482;-77
2022/07/14 07:49:06;;;;;;;5.13;1.45;;;;;;;20.58;57.32;102158.50;5030924;28;20083;-76
2022/07/14 07:51:31;;;;;;;5.72;1.80;;;;;;;19.70;58.97;102161.16;5018731;28;20029;-76
2022/07/14 07:53:57;;;;;;;6.22;1.80;;;;;;;19.28;59.77;102170.31;5016308;28;20127;-75
2022/07/14 07:56:23;;;;;;;4.70;1.58;;;;;;;20.91;54.99;102163.19;5033481;28;20044;-74
2022/07/14 07:58:48;;;;;;;6.05;1.77;;;;;;;22.56;49.72;102176.56;5028084;28;20029;-76
2022/07/14 08:01:14;;;;;;;8.80;1.75;;;;;;;23.70;46.80;102169.00;5014484;28;21760;-75
2022/07/14 08:03:40;;;;;;;4.63;1.65;;;;;;;24.68;45.01;102170.66;5070075;28;20064;-75
2022/07/14 08:06:06;;;;;;;5.00;1.80;;;;;;;25.20;41.61;102164.53;5048916;28;20431;-74
2022/07/14 08:08:32;;;;;;;2.75;1.60;;;;;;;23.42;45.25;102170.38;5036560;28;20090;-75
2022/07/14 08:10:58;;;;;;;3.85;1.60;;;;;;;23.65;44.66;102175.16;5064058;28;20032;-76
2022/07/14 08:13:23;;;;;;;4.13;2.05;;;;;;;24.06;45.19;102176.41;5067977;28;20040;-75
2022/07/14 08:15:49;;;;;;;7.28;1.92;;;;;;;24.61;42.46;102169.94;5019129;28;20040;-75
2022/07/14 08:18:16;;;;;;;3.95;1.55;;;;;;;25.19;40.43;102168.34;5027751;28;20032;-76
2022/07/14 08:20:41;;;;;;;3.20;1.63;;;;;;;24.64;41.30;102168.63;5032576;28;20040;-75
2022/07/14 08:23:09;;;;;;;3.83;1.50;;;;;;;23.24;44.22;102168.44;5036738;28;20470;-78
2022/07/14 08:25:34;;;;;;;4.57;1.70;;;;;;;23.93;43.56;102176.56;5031660;28;20055;-76
2022/07/14 08:28:00;;;;;;;4.03;1.60;;;;;;;22.97;44.83;102159.63;5013033;28;20497;-78
2022/07/14 08:30:26;;;;;;;5.03;1.35;;;;;;;22.85;44.81;102177.00;5049554;28;20036;-74
2022/07/14 08:32:52;;;;;;;2.97;1.45;;;;;;;22.71;46.20;102179.00;5048558;28;20396;-74
2022/07/14 08:35:21;;;;;;;7.68;1.58;;;;;;;21.82;46.45;102176.06;5028208;28;20106;-76
2022/07/14 08:37:47;;;;;;;4.82;1.63;;;;;;;21.50;46.52;102186.06;5033322;28;20398;-76
2022/07/14 08:40:16;;;;;;;3.58;1.38;;;;;;;21.89;47.50;102179.63;5036225;28;20039;-77
2022/07/14 08:42:44;;;;;;;4.82;1.55;;;;;;;22.83;44.94;102180.78;5034663;28;20107;-77
2022/07/14 08:45:12;;;;;;;3.10;1.23;;;;;;;23.58;42.89;102179.91;5067951;28;20147;-76
2022/07/14 08:47:38;;;;;;;8.32;1.55;;;;;;;21.72;48.58;102170.22;5027897;28;20583;-76
2022/07/14 08:50:09;;;;;;;7.55;1.85;;;;;;;22.22;47.77;102170.44;5031801;28;20028;-76
2022/07/14 08:52:36;;;;;;;7.28;2.45;;;;;;;21.80;48.05;102169.97;5031208;28;20020;-81
2022/07/14 08:55:07;;;;;;;5.90;2.35;;;;;;;22.94;46.65;102172.88;5045100;28;20035;-76
2022/07/14 08:57:34;;;;;;;5.15;1.52;;;;;;;23.45;44.96;102164.41;5032892;28;20037;-77
2022/07/14 08:59:59;;;;;;;4.10;1.20;;;;;;;22.13;46.43;102161.59;5040984;28;20040;-81
2022/07/14 09:02:25;;;;;;;4.75;1.33;;;;;;;21.02;49.24;102167.16;5018607;28;20032;-82
2022/07/14 09:04:51;;;;;;;8.23;1.58;;;;;;;19.91;51.02;102151.16;5035622;28;20136;-83
2022/07/14 09:07:35;;;;;;;3.00;1.30;;;;;;;19.10;54.41;102176.25;5021102;28;20032;-80
2022/07/14 09:10:06;;;;;;;6.82;2.05;;;;;;;19.42;53.98;102173.97;5033284;28;20102;-80
2022/07/14 09:12:33;;;;;;;6.30;1.60;;;;;;;21.74;48.36;102170.84;5033350;28;20513;-82
2022/07/14 09:18:00;;;;;;;4.57;1.35;;;;;;;22.74;44.77;102178.56;5054372;28;20029;-81
2022/07/14 09:20:31;;;;;;;3.22;1.20;;;;;;;21.59;46.34;102176.56;5042848;28;20067;-82
2022/07/14 09:23:01;;;;;;;5.93;1.65;;;;;;;;;;5023919;28;20107;-81
2022/07/14 09:25:29;;;;;;;5.38;1.42;;;;;;;21.00;48.36;102178.31;5052173;28;20059;-81
2022/07/14 09:27:55;;;;;;;3.05;1.10;;;;;;;21.09;48.00;102181.69;5045162;28;20033;-82
2022/07/14 09:30:22;;;;;;;4.28;1.25;;;;;;;20.87;48.48;102175.56;5036826;28;20028;-83
2022/07/14 09:32:51;;;;;;;3.35;1.33;;;;;;;21.13;47.51;102182.09;5020775;28;20108;-82
2022/07/14 09:35:25;;;;;;;4.43;1.40;;;;;;;22.56;44.70;102174.66;5032353;28;20470;-81
2022/07/14 09:37:52;;;;;;;3.78;1.73;;;;;;;24.26;40.19;102184.34;5048963;28;20127;-82
2022/07/14 09:40:26;;;;;;;5.03;1.10;;;;;;;23.43;41.77;102187.66;5034544;28;20559;-82
2022/07/14 09:43:00;;;;;;;3.05;1.23;;;;;;;22.58;43.34;102185.41;5030380;28;20029;-82
2022/07/14 09:45:34;;;;;;;3.08;1.20;;;;;;;21.86;45.16;102182.81;5016303;28;20089;-83
2022/07/14 09:48:09;;;;;;;3.97;1.33;;;;;;;21.62;45.51;102199.91;5026156;28;20033;-83
2022/07/14 09:50:40;;;;;;;1.83;1.10;;;;;;;24.85;39.66;102186.47;5048193;28;20056;-82
2022/07/14 09:53:20;;;;;;;4.30;1.55;;;;;;;24.03;39.66;102192.50;5031673;28;20067;-81
2022/07/14 09:55:54;;;;;;;6.88;1.63;;;;;;;23.54;41.80;102197.91;5033260;28;20113;-80
2022/07/14 09:58:21;;;;;;;3.70;1.33;;;;;;;23.43;41.71;102201.41;5048640;28;20040;-81
2022/07/14 10:01:01;;;;;;;4.82;1.40;;;;;;;23.43;42.31;102204.97;5015719;28;20039;-79
2022/07/14 10:03:29;;;;;;;3.03;1.75;;;;;;;25.80;37.88;102211.03;5027277;28;20725;-80
2022/07/14 10:05:56;;;;;;;5.88;1.70;;;;;;;28.25;33.51;102203.25;5049920;28;20044;-80
2022/07/14 10:08:34;;;;;;;4.15;1.25;;;;;;;26.88;34.92;102219.50;5013150;28;20040;-79
2022/07/14 10:11:00;;;;;;;5.97;1.30;;;;;;;25.58;37.70;102212.75;5051004;28;20036;-79
2022/07/14 10:13:27;;;;;;;6.57;2.08;;;;;;;26.53;36.43;102216.94;5036699;28;20052;-80
2022/07/14 10:15:53;;;;;;;4.80;1.50;;;;;;;25.26;38.55;102218.63;5051675;28;20268;-78
2022/07/14 10:18:39;;;;;;;4.75;1.70;;;;;;;27.31;36.46;102217.16;5040890;28;20035;-79
2022/07/14 10:21:05;;;;;;;3.53;1.45;;;;;;;30.67;28.98;102212.84;5024168;28;20029;-79
2022/07/14 10:23:31;;;;;;;5.47;1.75;;;;;;;29.57;30.81;102215.75;5014218;28;20053;-79
2022/07/14 10:25:58;;;;;;;7.30;1.70;;;;;;;27.38;34.02;102218.66;5049968;28;21041;-80
2022/07/14 10:28:24;;;;;;;6.55;1.50;;;;;;;25.50;37.43;102224.13;5036529;28;20080;-79
2022/07/14 10:31:14;;;;;;;6.93;1.63;;;;;;;24.28;39.83;102223.44;5038678;28;20037;-83
2022/07/14 10:34:02;;;;;;;4.80;1.50;;;;;;;23.17;42.58;102221.69;5038117;28;20513;-81
2022/07/14 10:36:53;;;;;;;6.28;1.90;;;;;;;22.35;45.52;102224.34;5041222;28;20028;-82
2022/07/14 10:39:43;;;;;;;5.15;1.75;;;;;;;22.00;46.62;102215.63;5029050;28;20047;-83
2022/07/14 10:42:14;;;;;;;6.43;2.17;;;;;;;24.14;43.06;102213.72;5037598;28;20048;-82
2022/07/14 10:44:44;;;;;;;5.70;2.40;;;;;;;26.84;37.20;102200.94;5019854;28;20060;-82
2022/07/14 10:47:15;;;;;;;6.82;2.55;;;;;;;28.48;34.24;102210.44;5032916;28;20040;-81
2022/07/14 10:50:00;;;;;;;6.60;1.80;;;;;;;26.85;35.38;102219.16;5049447;28;20091;-80
2022/07/14 10:52:27;;;;;;;7.95;2.00;;;;;;;24.62;39.38;102209.28;5033085;28;20032;-81
2022/07/14 10:55:28;;;;;;;5.88;1.70;;;;;;;22.87;43.55;102216.84;5023331;28;20036;-84
2022/07/14 10:57:59;;;;;;;5.00;1.60;;;;;;;21.99;47.08;102220.25;4982104;28;20397;-82
2022/07/14 11:00:43;;;;;;;7.07;2.03;;;;;;;21.91;48.33;102224.06;5032612;28;20036;-82
2022/07/14 11:03:24;;;;;;;4.28;1.50;;;;;;;21.94;48.28;102220.91;5042188;28;20189;-82
2022/07/14 11:06:12;;;;;;;9.32;2.38;;;;;;;22.33;47.75;102231.94;5036984;28;20367;-82
2022/07/14 11:08:40;;;;;;;6.50;2.28;;;;;;;23.47;45.05;102216.34;5033705;28;20067;-81
2022/07/14 11:11:23;;;;;;;6.22;2.25;;;;;;;25.57;40.44;102214.66;5041335;28;20585;-82
2022/07/14 11:14:00;;;;;;;5.57;2.20;;;;;;;25.18;40.56;102219.81;5046281;28;20037;-83
2022/07/14 11:16:44;;;;;;;6.13;2.22;;;;;;;24.20;41.85;102221.03;5033963;28;20036;-81
2022/07/14 11:19:35;;;;;;;6.05;2.30;;;;;;;23.30;44.04;102220.75;5035628;28;20131;-81
2022/07/14 11:22:14;;;;;;;7.40;2.28;;;;;;;23.58;44.47;102226.59;5032742;28;20384;-82
2022/07/14 11:24:48;;;;;;;7.85;2.13;;;;;;;25.03;41.11;102208.38;5012127;28;20040;-83
2022/07/14 11:27:48;;;;;;;6.50;2.28;;;;;;;25.63;38.28;102221.13;5016145;28;20051;-80
2022/07/14 11:30:31;;;;;;;8.35;2.67;;;;;;;26.99;36.63;102226.03;5026423;28;21114;-80
2022/07/14 11:33:01;;;;;;;7.03;3.00;;;;;;;27.68;35.82;102222.97;5028161;28;20527;-80
2022/07/14 11:38:28;;;;;;;7.22;2.78;;;;;;;28.44;34.38;102217.56;5052069;28;20036;-82
2022/07/14 11:40:55;;;;;;;9.27;3.08;;;;;;;29.98;30.03;102229.81;5017524;28;20479;-81
2022/07/14 11:43:30;;;;;;;7.30;3.08;;;;;;;30.78;30.10;102233.09;5022891;28;20053;-81